Time;durP1;ratioP1;P1;durP2;ratioP2;P2;SDS_P1;SDS_P2;PMS_P1;PMS_P2;Temp;Humidity;BMP_temperature;BMP_pressure;BME280_temperature;BME280_humidity;BME280_pressure;Samples;Min_cycle;Max_cycle;Signal;HPM_P1;HPM_P2
2020/12/06 00:01:02;;;;;;;17.20;15.50;;;8.00;47.10;;;;;;5033555;28;20652;-65
2020/12/06 00:03:28;;;;;;;16.40;14.77;;;7.90;47.60;;;;;;5035146;28;20530;-65
2020/12/06 00:05:53;;;;;;;17.70;16.00;;;8.00;47.30;;;;;;5034068;28;20531;-66
2020/12/06 00:08:19;;;;;;;16.23;14.53;;;8.00;47.70;;;;;;5035247;28;20228;-65
2020/12/06 00:10:44;;;;;;;16.90;15.30;;;7.90;47.60;;;;;;5033388;28;20219;-65
2020/12/06 00:13:10;;;;;;;15.70;14.20;;;7.90;48.20;;;;;;5035586;28;20253;-67
2020/12/06 00:15:36;;;;;;;16.33;14.83;;;7.90;48.90;;;;;;5033250;28;21299;-67
2020/12/06 00:18:01;;;;;;;16.20;14.70;;;7.90;48.10;;;;;;5034602;28;20227;-65
2020/12/06 00:20:27;;;;;;;15.63;14.23;;;7.90;48.10;;;;;;5033429;28;20219;-65
2020/12/06 00:22:52;;;;;;;17.13;15.63;;;8.00;48.10;;;;;;5034454;28;20238;-66
2020/12/06 00:25:18;;;;;;;16.77;15.13;;;8.00;47.60;;;;;;5033531;28;20354;-68
2020/12/06 00:27:43;;;;;;;15.60;14.13;;;7.90;48.70;;;;;;5034547;28;20454;-65
2020/12/06 00:30:10;;;;;;;16.80;15.10;;;8.00;48.30;;;;;;5032930;28;20227;-66
2020/12/06 00:32:37;;;;;;;16.50;14.90;;;8.00;47.30;;;;;;5034827;28;20230;-65
2020/12/06 00:35:04;;;;;;;15.00;13.60;;;8.00;47.80;;;;;;5033564;28;20805;-67
2020/12/06 00:37:30;;;;;;;15.50;14.10;;;7.90;48.30;;;;;;5034540;28;21007;-66
2020/12/06 00:39:55;;;;;;;16.53;14.97;;;8.00;47.80;;;;;;5033130;28;20454;-65
2020/12/06 00:42:21;;;;;;;14.97;13.67;;;8.00;48.30;;;;;;5034937;28;20255;-65
2020/12/06 00:44:46;;;;;;;16.30;14.73;;;7.90;47.60;;;;;;5033642;28;20557;-67
2020/12/06 00:47:12;;;;;;;15.03;13.53;;;7.90;48.60;;;;;;5034376;28;20234;-64
2020/12/06 00:49:37;;;;;;;14.03;12.73;;;7.90;48.80;;;;;;5034411;28;20223;-65
2020/12/06 00:52:03;;;;;;;15.87;14.23;;;7.90;48.60;;;;;;5032663;28;20281;-65
2020/12/06 00:54:29;;;;;;;15.73;14.20;;;7.90;49.30;;;;;;5034162;28;20311;-65
2020/12/06 00:56:55;;;;;;;16.73;15.13;;;7.90;48.80;;;;;;5032800;28;20215;-67
2020/12/06 00:59:21;;;;;;;20.87;18.70;;;7.90;48.90;;;;;;5034004;28;20223;-65
2020/12/06 01:01:46;;;;;;;16.10;14.50;;;7.90;49.20;;;;;;5033303;28;20465;-65
2020/12/06 01:04:12;;;;;;;15.97;14.43;;;7.90;49.50;;;;;;5034162;28;20224;-66
2020/12/06 01:06:37;;;;;;;15.70;14.20;;;7.90;50.30;;;;;;5032337;28;20225;-66
2020/12/06 01:09:03;;;;;;;14.00;12.63;;;8.00;49.10;;;;;;5034422;28;20224;-64
2020/12/06 01:11:29;;;;;;;14.70;13.40;;;7.90;48.70;;;;;;5031944;28;21218;-65
2020/12/06 01:13:54;;;;;;;15.17;13.77;;;7.80;48.80;;;;;;5034201;28;20263;-67
2020/12/06 01:16:20;;;;;;;14.57;13.17;;;7.80;49.40;;;;;;5032687;28;20231;-65
2020/12/06 01:18:45;;;;;;;13.57;12.20;;;7.80;49.70;;;;;;5034213;28;20261;-67
2020/12/06 01:21:12;;;;;;;13.77;12.50;;;7.80;48.80;;;;;;5032046;28;20841;-66
2020/12/06 01:23:37;;;;;;;15.63;14.13;;;7.90;48.40;;;;;;5042981;28;20423;-66
2020/12/06 01:26:04;;;;;;;16.80;14.70;;;7.80;48.40;;;;;;5049137;28;20516;-64
2020/12/06 01:28:29;;;;;;;17.67;15.97;;;7.60;48.70;;;;;;5049030;28;20628;-65
2020/12/06 01:30:55;;;;;;;16.67;15.07;;;7.60;49.90;;;;;;5048730;28;20453;-66
2020/12/06 01:33:20;;;;;;;17.83;16.07;;;7.60;48.90;;;;;;5048936;28;20255;-66
2020/12/06 01:35:46;;;;;;;18.23;16.50;;;7.60;49.50;;;;;;5049003;28;20628;-67
2020/12/06 01:38:11;;;;;;;17.10;15.50;;;7.60;49.10;;;;;;5048829;28;20180;-65
2020/12/06 01:40:40;;;;;;;17.03;15.43;;;7.70;49.70;;;;;;5049220;28;20180;-65
2020/12/06 01:43:10;;;;;;;17.60;15.80;;;7.70;49.20;;;;;;5049383;28;20257;-68
2020/12/06 01:45:37;;;;;;;17.57;15.87;;;7.70;48.80;;;;;;5050934;28;20878;-65
2020/12/06 01:48:07;;;;;;;16.27;14.67;;;7.70;49.10;;;;;;5050337;28;20494;-66
2020/12/06 01:50:36;;;;;;;15.97;14.50;;;7.80;48.50;;;;;;5050518;28;20406;-66
2020/12/06 01:53:03;;;;;;;17.93;15.63;;;7.80;48.70;;;;;;5050333;28;20521;-65
2020/12/06 01:55:30;;;;;;;15.97;14.50;;;7.80;48.30;;;;;;5050892;28;20460;-65
2020/12/06 01:58:14;;;;;;;15.30;13.97;;;7.80;48.80;;;;;;5050508;28;20414;-66
2020/12/06 02:00:40;;;;;;;15.20;13.60;;;7.80;48.30;;;;;;5050369;28;20889;-66
2020/12/06 02:03:05;;;;;;;14.57;13.20;;;7.80;48.20;;;;;;5050230;28;20441;-65
2020/12/06 02:05:32;;;;;;;16.07;14.03;;;7.70;48.20;;;;;;5050412;28;20180;-66
2020/12/06 02:07:59;;;;;;;16.60;14.83;;;7.80;48.30;;;;;;5049988;28;20214;-65
2020/12/06 02:10:29;;;;;;;14.93;13.53;;;7.80;48.00;;;;;;5050371;28;20495;-64
2020/12/06 02:12:55;;;;;;;15.47;13.97;;;7.70;48.20;;;;;;5050355;28;20905;-65
2020/12/06 02:15:22;;;;;;;16.17;14.57;;;7.80;47.90;;;;;;5050283;28;20410;-64
2020/12/06 02:17:48;;;;;;;17.03;15.20;;;7.80;48.30;;;;;;5050155;28;20437;-65
2020/12/06 02:20:13;;;;;;;16.00;14.50;;;7.80;47.90;;;;;;5050121;28;20410;-65
2020/12/06 02:22:39;;;;;;;17.83;16.03;;;7.70;48.50;;;;;;5051961;28;20208;-64
2020/12/06 02:25:05;;;;;;;17.60;15.80;;;7.70;47.90;;;;;;5053868;28;20187;-64
2020/12/06 02:27:31;;;;;;;16.83;15.13;;;7.60;48.40;;;;;;5053636;28;20178;-66
2020/12/06 02:29:56;;;;;;;17.37;15.70;;;7.60;48.60;;;;;;5053664;28;20203;-67
2020/12/06 02:32:22;;;;;;;18.60;16.73;;;7.50;48.00;;;;;;5053707;28;20792;-65
2020/12/06 02:34:47;;;;;;;18.37;16.57;;;7.50;48.50;;;;;;5053675;28;20175;-66
2020/12/06 02:37:13;;;;;;;19.73;16.13;;;7.50;48.60;;;;;;5053458;28;20555;-66
2020/12/06 02:39:39;;;;;;;19.00;17.07;;;7.50;48.40;;;;;;5053684;28;20172;-67
2020/12/06 02:42:04;;;;;;;18.90;16.83;;;7.40;48.90;;;;;;5053509;28;20238;-65
2020/12/06 02:44:30;;;;;;;19.50;17.50;;;7.40;48.90;;;;;;5053517;28;20646;-65
2020/12/06 02:46:55;;;;;;;19.63;17.57;;;7.50;49.10;;;;;;5053596;28;20172;-66
2020/12/06 02:49:21;;;;;;;20.90;18.80;;;7.40;48.70;;;;;;5053350;28;20204;-66
2020/12/06 02:51:46;;;;;;;20.20;17.60;;;7.40;48.90;;;;;;5053472;28;20275;-65
2020/12/06 02:54:12;;;;;;;20.30;18.00;;;7.40;48.50;;;;;;5053503;28;20537;-67
2020/12/06 02:56:37;;;;;;;17.93;16.03;;;7.30;48.40;;;;;;5053615;28;20187;-65
2020/12/06 02:59:03;;;;;;;18.07;16.17;;;7.30;48.60;;;;;;5053281;28;20217;-66
2020/12/06 03:01:30;;;;;;;20.93;18.60;;;7.30;48.50;;;;;;5053129;28;20199;-66
2020/12/06 03:03:56;;;;;;;18.63;16.80;;;7.20;48.60;;;;;;5053242;28;20171;-65
2020/12/06 03:06:21;;;;;;;18.90;16.90;;;7.10;48.10;;;;;;5053151;28;20966;-65
2020/12/06 03:08:47;;;;;;;19.50;17.50;;;7.20;48.80;;;;;;5053077;28;20450;-65
2020/12/06 03:11:12;;;;;;;18.00;16.07;;;7.20;48.50;;;;;;5052919;28;20510;-65
2020/12/06 03:13:38;;;;;;;18.50;16.57;;;7.10;48.50;;;;;;5052935;28;20195;-64
2020/12/06 03:16:04;;;;;;;19.10;17.07;;;7.10;49.00;;;;;;5052867;28;20198;-64
2020/12/06 03:18:29;;;;;;;17.00;15.17;;;7.20;48.90;;;;;;5052574;28;20203;-65
2020/12/06 03:20:55;;;;;;;20.70;17.70;;;7.20;48.20;;;;;;5087634;28;20641;-65
2020/12/06 03:23:21;;;;;;;19.73;17.63;;;7.20;48.60;;;;;;5093033;28;20465;-64
2020/12/06 03:25:46;;;;;;;20.17;17.93;;;7.10;48.80;;;;;;5093046;28;20549;-65
2020/12/06 03:28:12;;;;;;;20.00;17.30;;;7.00;49.10;;;;;;5092801;28;20213;-64
2020/12/06 03:30:37;;;;;;;19.47;17.37;;;7.10;49.30;;;;;;5092871;28;20198;-64
2020/12/06 03:33:03;;;;;;;21.60;18.43;;;7.10;49.10;;;;;;5092594;28;20201;-64
2020/12/06 03:35:29;;;;;;;21.13;18.20;;;7.10;49.20;;;;;;5093332;28;20410;-66
2020/12/06 03:37:54;;;;;;;22.67;17.70;;;7.10;49.10;;;;;;5092870;28;20201;-65
2020/12/06 03:40:20;;;;;;;20.67;17.67;;;7.10;48.60;;;;;;5093064;28;20178;-65
2020/12/06 03:42:45;;;;;;;25.13;18.83;;;7.00;49.70;;;;;;5092662;28;20201;-65
2020/12/06 03:45:11;;;;;;;21.30;19.00;;;7.10;48.70;;;;;;5092623;28;20780;-66
2020/12/06 03:47:36;;;;;;;24.07;19.07;;;7.00;48.50;;;;;;5092420;28;20682;-65
2020/12/06 03:50:02;;;;;;;23.50;20.40;;;7.00;49.10;;;;;;5092442;28;20282;-67
2020/12/06 03:52:28;;;;;;;23.40;18.47;;;6.90;49.50;;;;;;5092460;28;20205;-65
2020/12/06 03:54:53;;;;;;;23.97;19.77;;;6.90;49.50;;;;;;5092395;28;20413;-65
2020/12/06 03:57:19;;;;;;;22.00;17.70;;;6.80;49.10;;;;;;5092286;28;20170;-66
2020/12/06 03:59:44;;;;;;;26.03;20.23;;;6.70;49.30;;;;;;5092334;28;20227;-64
2020/12/06 04:02:10;;;;;;;26.30;19.60;;;6.80;49.70;;;;;;5092307;28;20562;-63
2020/12/06 04:04:36;;;;;;;27.90;20.47;;;6.80;49.70;;;;;;5092243;28;20177;-65
2020/12/06 04:07:01;;;;;;;25.47;19.87;;;6.80;49.70;;;;;;5092323;28;20170;-65
2020/12/06 04:09:26;;;;;;;27.90;20.83;;;6.80;49.70;;;;;;5092247;28;20660;-65
2020/12/06 04:11:52;;;;;;;22.40;18.20;;;6.80;49.70;;;;;;5092197;28;20277;-65
2020/12/06 04:14:17;;;;;;;28.03;20.13;;;6.90;49.80;;;;;;5092067;28;20512;-65
2020/12/06 04:16:43;;;;;;;24.93;19.93;;;6.80;49.70;;;;;;5092026;28;20170;-64
2020/12/06 04:19:08;;;;;;;29.50;21.37;;;6.90;49.90;;;;;;5091864;28;20172;-64
2020/12/06 04:21:34;;;;;;;26.50;21.87;;;6.90;49.80;;;;;;5091918;28;20240;-65
2020/12/06 04:23:59;;;;;;;29.57;22.03;;;6.90;49.10;;;;;;5092176;28;20186;-64
2020/12/06 04:26:25;;;;;;;27.37;22.23;;;7.00;49.90;;;;;;5092186;28;20635;-65
2020/12/06 04:28:50;;;;;;;28.03;21.97;;;7.00;49.60;;;;;;5091753;28;20690;-65
2020/12/06 04:31:16;;;;;;;27.10;21.20;;;7.10;49.70;;;;;;5091839;28;20224;-65
2020/12/06 04:33:42;;;;;;;28.10;22.40;;;7.20;48.80;;;;;;5091798;28;20495;-65
2020/12/06 04:36:07;;;;;;;24.77;19.60;;;7.10;48.00;;;;;;5091868;28;20794;-64
2020/12/06 04:38:33;;;;;;;25.57;20.07;;;7.10;48.60;;;;;;5091466;28;20185;-65
2020/12/06 04:40:58;;;;;;;26.60;21.50;;;7.30;49.60;;;;;;5091619;28;20206;-66
2020/12/06 04:43:26;;;;;;;27.70;20.73;;;7.30;48.00;;;;;;5091619;28;20693;-65
2020/12/06 04:45:52;;;;;;;29.90;22.20;;;7.30;47.50;;;;;;5090985;28;20184;-64
2020/12/06 04:48:34;;;;;;;26.93;20.10;;;7.30;47.70;;;;;;5091103;28;20418;-64
2020/12/06 04:51:04;;;;;;;27.33;19.33;;;7.30;47.30;;;;;;5091343;28;20420;-65
2020/12/06 04:53:43;;;;;;;27.73;19.87;;;7.20;47.30;;;;;;5091337;28;20404;-64
2020/12/06 04:56:11;;;;;;;28.13;21.50;;;7.20;47.20;;;;;;5091470;28;20415;-65
2020/12/06 04:58:42;;;;;;;25.50;19.50;;;7.00;48.10;;;;;;5091018;28;20452;-65
2020/12/06 05:01:07;;;;;;;27.60;21.10;;;7.00;47.80;;;;;;5091336;28;20472;-64
2020/12/06 05:03:36;;;;;;;27.87;20.67;;;7.10;48.10;;;;;;5091287;28;20511;-64
2020/12/06 05:06:04;;;;;;;29.57;22.20;;;7.20;47.60;;;;;;5091282;28;20867;-65
2020/12/06 05:08:33;;;;;;;34.10;26.03;;;7.20;47.40;;;;;;5090947;28;20580;-65
2020/12/06 05:10:59;;;;;;;42.67;30.80;;;7.00;47.80;;;;;;5090972;28;20957;-66
2020/12/06 05:13:25;;;;;;;30.83;22.83;;;7.00;48.60;;;;;;5091013;28;20891;-64
2020/12/06 05:15:53;;;;;;;28.60;20.53;;;6.90;48.40;;;;;;5091036;28;20414;-64
2020/12/06 05:18:18;;;;;;;28.03;20.80;;;6.90;48.80;;;;;;5090821;28;20174;-64
2020/12/06 05:20:45;;;;;;;26.33;19.97;;;7.00;48.50;;;;;;5090884;28;20477;-65
2020/12/06 05:23:12;;;;;;;29.80;21.00;;;7.00;47.40;;;;;;5091050;28;20226;-64
2020/12/06 05:25:38;;;;;;;32.40;22.00;;;7.20;47.50;;;;;;5091351;28;20414;-65
2020/12/06 05:28:03;;;;;;;26.03;20.47;;;7.10;47.50;;;;;;5090750;28;20426;-64
2020/12/06 05:30:29;;;;;;;30.80;21.97;;;7.20;46.50;;;;;;5090866;28;20459;-64
2020/12/06 05:32:57;;;;;;;25.27;19.63;;;7.20;46.50;;;;;;5091162;28;20256;-64
2020/12/06 05:35:23;;;;;;;26.67;21.77;;;7.20;47.10;;;;;;5091034;28;20206;-64
2020/12/06 05:37:49;;;;;;;28.80;23.27;;;7.30;46.30;;;;;;5090981;28;20400;-64
2020/12/06 05:40:19;;;;;;;24.83;18.93;;;7.40;45.70;;;;;;5091046;28;20442;-64
2020/12/06 05:42:45;;;;;;;22.87;19.50;;;7.30;46.40;;;;;;5090933;28;20212;-65
2020/12/06 05:45:12;;;;;;;25.13;20.60;;;7.20;45.80;;;;;;5091056;28;20420;-64
2020/12/06 05:47:38;;;;;;;26.00;20.17;;;7.40;44.70;;;;;;5090689;28;20786;-64
2020/12/06 05:50:05;;;;;;;29.40;21.47;;;7.00;45.40;;;;;;5090735;28;20525;-64
2020/12/06 05:52:33;;;;;;;24.60;18.83;;;7.10;46.10;;;;;;5091199;28;20796;-64
2020/12/06 05:55:00;;;;;;;24.40;19.97;;;7.30;45.30;;;;;;5090615;28;20434;-64
2020/12/06 05:57:27;;;;;;;25.30;20.33;;;7.30;44.70;;;;;;5094037;28;20408;-64
2020/12/06 05:59:58;;;;;;;26.23;20.63;;;7.20;45.40;;;;;;5094617;28;20453;-64
2020/12/06 06:02:24;;;;;;;25.70;20.93;;;7.20;45.40;;;;;;5094584;28;20432;-66
2020/12/06 06:04:51;;;;;;;23.33;19.70;;;7.20;45.40;;;;;;5093150;28;20423;-65
2020/12/06 06:07:23;;;;;;;24.50;19.83;;;7.40;45.10;;;;;;5054068;28;20908;-65
2020/12/06 06:10:02;;;;;;;26.97;20.60;;;7.50;44.20;;;;;;5054114;28;20469;-66
2020/12/06 06:12:30;;;;;;;23.90;19.53;;;7.60;44.40;;;;;;5054034;28;20924;-65
2020/12/06 06:15:00;;;;;;;23.50;18.60;;;7.60;44.90;;;;;;5054292;28;20410;-64
2020/12/06 06:17:26;;;;;;;29.20;21.10;;;7.60;45.00;;;;;;5053994;28;20424;-66
2020/12/06 06:19:52;;;;;;;29.10;21.60;;;7.30;44.80;;;;;;5054008;28;20440;-66
2020/12/06 06:22:25;;;;;;;25.67;19.40;;;7.40;46.40;;;;;;5053868;28;20440;-66
2020/12/06 06:24:52;;;;;;;25.07;20.40;;;7.50;46.20;;;;;;5049677;28;20194;-66
2020/12/06 06:27:18;;;;;;;26.00;21.20;;;7.50;45.50;;;;;;5053350;28;20787;-66
2020/12/06 06:29:44;;;;;;;26.70;21.10;;;7.40;44.60;;;;;;5053636;28;20454;-65
2020/12/06 06:32:11;;;;;;;29.87;21.17;;;7.40;43.80;;;;;;5064087;28;20536;-66
2020/12/06 06:34:38;;;;;;;28.57;22.17;;;7.30;44.90;;;;;;5073302;28;20174;-67
2020/12/06 06:37:12;;;;;;;29.90;20.87;;;7.20;44.90;;;;;;5073485;28;20419;-69
2020/12/06 06:39:39;;;;;;;29.03;21.63;;;7.10;45.80;;;;;;5073141;28;20413;-67
2020/12/06 06:42:24;;;;;;;31.17;22.73;;;7.10;45.70;;;;;;5073217;28;20531;-68
2020/12/06 06:44:55;;;;;;;31.53;22.93;;;7.00;46.70;;;;;;5073330;28;20413;-67
2020/12/06 06:47:21;;;;;;;27.40;21.27;;;7.00;46.90;;;;;;5073276;28;20425;-67
2020/12/06 06:49:54;;;;;;;26.60;20.63;;;7.10;47.30;;;;;;5073039;28;20468;-68
2020/12/06 06:52:22;;;;;;;33.40;22.10;;;7.10;47.00;;;;;;5073202;28;20429;-67
2020/12/06 06:54:50;;;;;;;29.77;22.47;;;7.10;47.10;;;;;;5073163;28;20410;-67
2020/12/06 06:57:18;;;;;;;28.93;21.33;;;7.00;47.60;;;;;;5072756;28;20791;-68
2020/12/06 06:59:49;;;;;;;29.87;21.50;;;7.20;46.50;;;;;;5072935;28;20594;-66
2020/12/06 07:02:27;;;;;;;26.60;19.83;;;7.30;46.90;;;;;;5073053;28;20499;-68
2020/12/06 07:04:53;;;;;;;28.10;21.40;;;7.30;45.90;;;;;;5072682;28;20405;-67
2020/12/06 07:07:44;;;;;;;23.03;17.70;;;7.20;46.90;;;;;;5072139;28;20479;-67
2020/12/06 07:10:15;;;;;;;28.53;20.53;;;6.80;47.50;;;;;;5072809;28;20464;-67
2020/12/06 07:12:49;;;;;;;25.37;19.13;;;6.90;48.80;;;;;;5072695;28;20520;-67
2020/12/06 07:15:17;;;;;;;28.33;20.50;;;7.00;48.10;;;;;;5072793;28;20792;-67
2020/12/06 07:17:44;;;;;;;28.97;20.20;;;7.10;48.50;;;;;;5072415;28;20424;-67
2020/12/06 07:20:12;;;;;;;28.43;21.23;;;7.10;48.00;;;;;;5072457;28;20828;-66
2020/12/06 07:22:38;;;;;;;26.53;19.30;;;7.10;48.50;;;;;;5072453;28;20437;-68
2020/12/06 07:25:05;;;;;;;24.80;19.67;;;7.10;47.20;;;;;;5072587;28;20451;-66
2020/12/06 07:27:31;;;;;;;26.73;18.67;;;7.00;49.10;;;;;;5072110;28;20907;-66
2020/12/06 07:29:57;;;;;;;27.47;19.30;;;7.30;49.00;;;;;;5072412;28;20465;-66
2020/12/06 07:32:23;;;;;;;27.80;19.27;;;7.40;47.70;;;;;;5072326;28;20452;-66
2020/12/06 07:34:49;;;;;;;24.73;16.50;;;7.20;50.50;;;;;;5071953;28;20167;-67
2020/12/06 07:37:15;;;;;;;20.60;14.27;;;7.70;53.20;;;;;;5071953;28;20190;-67
2020/12/06 07:39:42;;;;;;;22.73;16.00;;;7.80;53.80;;;;;;5072364;28;20428;-67
2020/12/06 07:42:08;;;;;;;21.90;15.40;;;8.00;50.70;;;;;;5071845;28;20483;-65
2020/12/06 07:44:44;;;;;;;23.70;15.50;;;8.30;57.40;;;;;;5072168;28;20409;-65
2020/12/06 07:47:10;;;;;;;25.70;20.50;;;9.20;51.70;;;;;;5072194;28;20416;-66
2020/12/06 07:50:02;;;;;;;24.17;17.67;;;9.40;42.70;;;;;;5071765;28;20509;-66
2020/12/06 07:52:32;;;;;;;22.10;16.17;;;8.70;43.10;;;;;;5062353;28;20474;-66
2020/12/06 07:55:08;;;;;;;24.20;17.50;;;8.30;43.80;;;;;;5059972;28;20413;-66
2020/12/06 07:57:40;;;;;;;24.47;17.60;;;8.00;45.20;;;;;;5068897;28;20418;-66
2020/12/06 08:00:10;;;;;;;24.73;16.80;;;7.80;46.30;;;;;;5072145;28;21033;-66
2020/12/06 08:02:38;;;;;;;28.03;20.10;;;7.60;46.70;;;;;;5056336;28;20507;-66
2020/12/06 08:05:05;;;;;;;25.33;19.67;;;7.50;47.80;;;;;;5052098;28;20422;-66
2020/12/06 08:07:43;;;;;;;27.43;18.80;;;7.30;48.30;;;;;;5051842;28;20428;-66
2020/12/06 08:10:16;;;;;;;25.57;16.80;;;7.40;49.00;;;;;;5051991;28;20466;-66
2020/12/06 08:12:44;;;;;;;24.90;17.57;;;7.40;48.00;;;;;;5052043;28;20427;-67
2020/12/06 08:15:11;;;;;;;23.90;17.67;;;7.10;50.00;;;;;;5053787;28;20413;-67
2020/12/06 08:17:50;;;;;;;28.17;18.03;;;7.10;50.60;;;;;;5069553;28;20413;-66
2020/12/06 08:20:20;;;;;;;22.77;14.60;;;7.20;49.40;;;;;;5070573;28;20425;-66
2020/12/06 08:22:49;;;;;;;26.47;17.87;;;6.90;49.80;;;;;;5070689;28;20444;-66
2020/12/06 08:25:14;;;;;;;21.17;16.07;;;6.90;51.80;;;;;;5070769;28;20413;-66
2020/12/06 08:27:43;;;;;;;19.80;14.73;;;7.00;50.80;;;;;;5069424;28;20430;-67
2020/12/06 08:30:17;;;;;;;22.53;15.87;;;7.10;50.10;;;;;;5069879;28;20206;-66
2020/12/06 08:32:57;;;;;;;22.50;15.97;;;7.10;50.90;;;;;;5071171;28;20438;-67
2020/12/06 08:35:44;;;;;;;19.67;13.40;;;7.30;50.60;;;;;;5071143;28;20440;-66
2020/12/06 08:38:29;;;;;;;18.50;13.83;;;7.30;50.10;;;;;;5071144;28;20441;-67
2020/12/06 08:41:01;;;;;;;24.07;15.23;;;7.20;50.20;;;;;;5071261;28;20428;-67
2020/12/06 08:44:02;;;;;;;20.87;15.23;;;7.50;49.60;;;;;;5070944;28;20493;-66
2020/12/06 08:46:29;;;;;;;19.70;13.90;;;7.20;50.00;;;;;;5049251;28;20425;-66
2020/12/06 08:48:56;;;;;;;20.60;15.53;;;6.90;50.10;;;;;;5070952;28;21005;-66
2020/12/06 08:51:24;;;;;;;21.80;16.10;;;6.70;52.30;;;;;;5071223;28;20486;-67
2020/12/06 08:53:50;;;;;;;18.93;13.83;;;6.80;51.80;;;;;;5071093;28;20417;-66
2020/12/06 08:56:28;;;;;;;18.97;13.93;;;6.90;51.70;;;;;;5071086;28;20427;-66
2020/12/06 08:58:55;;;;;;;19.40;13.47;;;7.10;50.80;;;;;;5070850;28;20895;-67
2020/12/06 09:01:20;;;;;;;17.47;13.57;;;7.20;50.10;;;;;;5070975;28;20433;-66
2020/12/06 09:03:46;;;;;;;20.10;14.87;;;7.20;49.70;;;;;;5070996;28;20995;-66
2020/12/06 09:06:18;;;;;;;20.27;13.87;;;7.00;49.90;;;;;;5070846;28;20186;-64
2020/12/06 09:08:44;;;;;;;17.70;13.47;;;7.20;51.10;;;;;;5070584;28;20670;-64
2020/12/06 09:11:28;;;;;;;16.97;11.90;;;7.40;50.20;;;;;;5071109;28;20418;-66
2020/12/06 09:13:53;;;;;;;18.97;13.10;;;7.40;48.80;;;;;;5070816;28;20413;-68
2020/12/06 09:16:19;;;;;;;16.20;12.90;;;7.30;49.50;;;;;;5070905;28;20987;-67
2020/12/06 09:18:44;;;;;;;16.33;11.43;;;7.40;49.40;;;;;;5070650;28;20185;-67
2020/12/06 09:21:10;;;;;;;17.30;12.90;;;7.50;49.00;;;;;;5070526;28;20179;-67
2020/12/06 09:23:36;;;;;;;17.23;12.87;;;7.90;48.50;;;;;;5070920;28;20199;-67
2020/12/06 09:26:03;;;;;;;17.83;12.20;;;7.80;47.80;;;;;;5070934;28;20183;-67
2020/12/06 09:28:29;;;;;;;15.63;12.23;;;7.90;48.00;;;;;;5070627;28;20763;-67
2020/12/06 09:30:54;;;;;;;11.70;9.73;;;8.10;47.60;;;;;;5072720;28;20731;-67
2020/12/06 09:33:21;;;;;;;13.83;11.00;;;8.10;45.90;;;;;;5077310;28;20199;-68
2020/12/06 09:35:48;;;;;;;12.60;10.10;;;8.10;46.40;;;;;;5077296;28;20576;-68
2020/12/06 09:38:13;;;;;;;11.10;9.77;;;8.10;46.00;;;;;;5077120;28;20979;-68
2020/12/06 09:40:39;;;;;;;10.97;9.20;;;8.00;46.50;;;;;;5077349;28;20437;-65
2020/12/06 09:43:05;;;;;;;10.93;9.27;;;8.10;45.90;;;;;;5077180;28;20277;-68
2020/12/06 09:45:30;;;;;;;11.17;9.73;;;8.00;45.70;;;;;;5077292;28;20418;-67
2020/12/06 09:47:56;;;;;;;10.77;8.90;;;7.70;46.40;;;;;;5077035;28;20183;-67
2020/12/06 09:50:21;;;;;;;10.67;8.90;;;7.60;47.50;;;;;;5076958;28;20289;-67
2020/12/06 09:52:47;;;;;;;10.73;9.07;;;7.60;47.30;;;;;;5077014;28;20658;-66
2020/12/06 09:55:12;;;;;;;22.50;9.80;;;7.60;47.40;;;;;;5077468;28;20393;-67
2020/12/06 09:57:38;;;;;;;9.63;8.33;;;7.80;46.80;;;;;;5076930;28;20172;-67
2020/12/06 10:00:05;;;;;;;10.43;8.73;;;7.70;47.40;;;;;;5077041;28;20229;-66
2020/12/06 10:02:31;;;;;;;10.37;8.83;;;8.00;47.70;;;;;;5077022;28;20191;-67
2020/12/06 10:04:57;;;;;;;10.80;9.67;;;8.10;47.30;;;;;;5076817;28;20409;-66
2020/12/06 10:07:24;;;;;;;11.30;9.43;;;8.30;46.10;;;;;;5076760;28;20210;-67
2020/12/06 10:09:50;;;;;;;12.27;10.90;;;8.30;45.60;;;;;;5076959;28;20195;-66
2020/12/06 10:12:16;;;;;;;9.47;8.57;;;8.30;46.10;;;;;;5077156;28;20512;-67
2020/12/06 10:14:41;;;;;;;9.90;8.33;;;8.30;46.10;;;;;;5077141;28;20496;-67
2020/12/06 10:17:07;;;;;;;9.77;8.77;;;8.40;45.70;;;;;;5077271;28;20206;-65
2020/12/06 10:19:32;;;;;;;10.77;8.30;;;8.50;45.30;;;;;;5076870;28;20646;-65
2020/12/06 10:21:58;;;;;;;9.50;8.50;;;8.60;45.70;;;;;;5077073;28;20328;-64
2020/12/06 10:24:23;;;;;;;9.70;8.70;;;8.50;45.50;;;;;;5076775;28;20206;-67
2020/12/06 10:26:53;;;;;;;11.13;9.77;;;8.60;44.90;;;;;;5076901;28;20186;-66
2020/12/06 10:29:19;;;;;;;9.23;8.30;;;8.50;45.10;;;;;;5076795;28;20280;-67
2020/12/06 10:31:47;;;;;;;9.90;9.00;;;8.60;44.60;;;;;;5076818;28;20475;-67
2020/12/06 10:34:13;;;;;;;9.13;8.33;;;8.30;45.70;;;;;;5076579;28;20416;-67
2020/12/06 10:36:38;;;;;;;9.03;8.13;;;8.10;46.70;;;;;;5076723;28;20405;-67
2020/12/06 10:39:04;;;;;;;9.00;8.10;;;8.30;46.80;;;;;;5076622;28;20199;-67
2020/12/06 10:41:29;;;;;;;10.73;9.73;;;8.30;45.80;;;;;;5076650;28;20252;-67
2020/12/06 10:43:55;;;;;;;11.40;9.10;;;8.30;46.20;;;;;;5072610;28;20176;-67
2020/12/06 10:46:25;;;;;;;9.17;8.27;;;8.50;47.30;;;;;;5073566;28;20175;-67
2020/12/06 10:48:52;;;;;;;8.00;7.23;;;8.40;46.20;;;;;;5073110;28;20278;-67
2020/12/06 10:51:17;;;;;;;9.73;8.77;;;8.40;45.40;;;;;;5073365;28;20928;-67
2020/12/06 10:53:43;;;;;;;9.17;8.20;;;8.40;46.20;;;;;;5073317;28;20420;-67
2020/12/06 10:56:09;;;;;;;10.77;8.60;;;8.30;47.20;;;;;;5073679;28;20760;-67
2020/12/06 10:58:35;;;;;;;8.67;7.87;;;8.30;46.80;;;;;;5073096;28;20437;-67
2020/12/06 11:01:01;;;;;;;9.10;8.20;;;8.20;47.00;;;;;;5073177;28;20418;-67
2020/12/06 11:03:26;;;;;;;9.20;8.40;;;8.30;47.70;;;;;;5073037;28;20447;-67
2020/12/06 11:05:52;;;;;;;10.00;8.63;;;8.50;46.80;;;;;;5073259;28;20172;-67
2020/12/06 11:08:17;;;;;;;9.13;8.33;;;8.50;46.30;;;;;;5072908;28;20258;-67
2020/12/06 11:10:43;;;;;;;9.90;9.00;;;8.60;46.70;;;;;;5073065;28;20199;-67
2020/12/06 11:13:08;;;;;;;10.03;9.10;;;8.70;46.00;;;;;;5069511;28;20195;-67
2020/12/06 11:15:34;;;;;;;13.73;8.87;;;8.60;46.50;;;;;;5068630;28;20600;-67
2020/12/06 11:17:59;;;;;;;9.70;8.70;;;8.60;46.40;;;;;;5059189;28;20674;-68
2020/12/06 11:20:25;;;;;;;9.87;8.87;;;8.60;46.70;;;;;;5053234;28;20180;-67
2020/12/06 11:22:50;;;;;;;9.97;9.07;;;8.40;47.10;;;;;;5052227;28;20253;-67
2020/12/06 11:25:16;;;;;;;10.80;8.70;;;8.50;47.50;;;;;;5068083;28;20212;-68
2020/12/06 11:27:41;;;;;;;9.93;8.93;;;8.60;48.00;;;;;;5052040;28;20175;-67
2020/12/06 11:30:07;;;;;;;10.00;9.00;;;8.60;49.10;;;;;;5052057;28;20204;-67
2020/12/06 11:32:32;;;;;;;10.70;9.70;;;8.60;46.60;;;;;;5052514;28;20192;-67
2020/12/06 11:34:58;;;;;;;9.77;8.87;;;8.60;47.00;;;;;;5052595;28;20176;-66
2020/12/06 11:37:23;;;;;;;9.83;8.90;;;8.60;47.50;;;;;;5051896;28;20176;-67
2020/12/06 11:39:49;;;;;;;10.60;9.43;;;8.60;48.40;;;;;;5052139;28;20677;-67
2020/12/06 11:42:15;;;;;;;9.03;8.20;;;8.70;47.70;;;;;;5052116;28;20203;-67
2020/12/06 11:44:40;;;;;;;9.37;8.57;;;8.70;47.70;;;;;;5051905;28;20180;-66
2020/12/06 11:47:06;;;;;;;9.40;8.53;;;8.50;47.40;;;;;;5051855;28;20183;-67
2020/12/06 11:49:31;;;;;;;8.53;7.83;;;8.40;47.80;;;;;;5052023;28;20722;-67
2020/12/06 11:51:57;;;;;;;9.33;8.50;;;8.50;47.80;;;;;;5051961;28;20325;-67
2020/12/06 11:54:22;;;;;;;8.93;8.13;;;8.50;48.90;;;;;;5051833;28;20172;-67
2020/12/06 11:56:49;;;;;;;9.30;8.47;;;8.60;48.90;;;;;;5052087;28;20705;-68
2020/12/06 11:59:16;;;;;;;10.47;9.13;;;8.70;48.60;;;;;;5051507;28;20567;-68
2020/12/06 12:01:41;;;;;;;11.00;10.00;;;8.70;48.00;;;;;;5051751;28;20430;-67
2020/12/06 12:04:07;;;;;;;8.50;7.70;;;8.70;48.40;;;;;;5052259;28;20421;-68
2020/12/06 12:06:32;;;;;;;8.87;7.97;;;8.70;48.10;;;;;;5052095;28;20214;-67
2020/12/06 12:08:58;;;;;;;7.60;6.90;;;8.70;47.70;;;;;;5051679;28;20588;-68
2020/12/06 12:11:23;;;;;;;8.53;7.80;;;8.70;47.20;;;;;;5051916;28;20197;-68
2020/12/06 12:13:49;;;;;;;9.33;8.37;;;8.80;46.70;;;;;;5051972;28;20168;-68
2020/12/06 12:16:14;;;;;;;7.93;7.23;;;8.80;47.70;;;;;;5051936;28;20172;-68
2020/12/06 12:18:40;;;;;;;7.13;6.63;;;8.80;47.80;;;;;;5051711;28;20678;-68
2020/12/06 12:21:07;;;;;;;7.30;6.67;;;8.80;46.20;;;;;;5052065;28;20180;-68
2020/12/06 12:23:32;;;;;;;7.43;6.73;;;8.90;46.20;;;;;;5051910;28;20714;-69
2020/12/06 12:25:58;;;;;;;7.43;6.83;;;8.90;46.30;;;;;;5051881;28;20494;-68
2020/12/06 12:28:23;;;;;;;9.00;8.30;;;8.80;45.50;;;;;;5051487;28;20633;-68
2020/12/06 12:30:49;;;;;;;8.03;7.40;;;8.60;46.60;;;;;;5051542;28;20207;-68
2020/12/06 12:33:14;;;;;;;8.00;7.37;;;8.70;47.00;;;;;;5051388;28;20245;-68
2020/12/06 12:35:40;;;;;;;7.00;6.50;;;8.70;46.60;;;;;;5051518;28;20176;-68
2020/12/06 12:38:05;;;;;;;7.27;6.77;;;8.70;47.40;;;;;;5051300;28;20168;-68
2020/12/06 12:40:31;;;;;;;6.40;6.00;;;8.80;47.20;;;;;;5051408;28;20176;-68